Accueil
METAR-TAF:

METAR-TAF

Aéroports :

Quimper, France

Aéroport de Quimper Bretagne, Pluguffan

latitude: 47-58N, longitude: 004-10W, altitude: 92 m

Observation

Le bulletin a été fait il y a 24 minutes, à 16:00 UTC
Vent 9 kt de est/nord-est
Température 7°C
Humidité 53%
Pression 1017 hPa
Visibilité 10 km ou plus
pas de nuages en-dessous de 1500 mètres et pas de cumulonimbus.

METAR: LFRQ 221600Z AUTO 06009KT CAVOK 07/M02 Q1017 NOSIG

Heure: 17:24 (16:24 UTC)

Prévision

Le bulletin a été fait il y a 2 heures et 24 minutes, à 14:00 UTC
Prévision valable du 22 à 15 UTC au 22 à 24 UTC
Vent 11 kt de est/nord-est
Visibilité: 8000 m
Temporairement
du 22 à 15 UTC au 22 à 18 UTC
Visibilité 10 km ou plus
pas de nuages en-dessous de 1500 mètres et pas de cumulonimbus.

TAF: LFRQ 221400Z 2215/2224 06011KT 8000 NSC TEMPO 2215/2218 CAVOK

Observations et prévisions météorologiques de plus de 4000 aéroports (messages METAR et TAF).

Les stations disponibles sont représentées par des disques jaunes et rouges sur la carte.

Passer la souris dessus pour voir le nom de la station.

Cliquer dessus pour voir les observations et prévisions météorologiques.

Pour changer de carte: cliquez sur les boutons verts avec une croix noire pour zoomer, sur le bouton vert avec un tiret pour effectuer un zoom arrière, ou sur les flèches vertes pour les cartes adjacentes.


METAR-TAF: